Time;durP1;ratioP1;P1;durP2;ratioP2;P2;SDS_P1;SDS_P2;PMS_P1;PMS_P2;Temp;Humidity;BMP_temperature;BMP_pressure;BME280_temperature;BME280_humidity;BME280_pressure;Samples;Min_cycle;Max_cycle;Signal;HPM_P1;HPM_P2
2023/06/12 00:01:40;;;;;;;5.35;2.47;;;11.80;58.00;;;;;;5015335;28;20018;-80
2023/06/12 00:04:06;;;;;;;6.68;2.47;;;11.80;58.20;;;;;;5015323;28;20026;-79
2023/06/12 00:06:33;;;;;;;5.40;2.77;;;11.70;58.30;;;;;;5015035;28;20073;-80
2023/06/12 00:08:59;;;;;;;3.63;2.50;;;11.70;58.40;;;;;;5015039;28;20026;-79
2023/06/12 00:11:25;;;;;;;4.47;2.60;;;11.70;58.50;;;;;;5014959;28;20034;-78
2023/06/12 00:13:51;;;;;;;4.15;2.78;;;11.60;58.80;;;;;;5015319;28;20042;-79
2023/06/12 00:16:17;;;;;;;3.08;2.47;;;11.60;58.90;;;;;;5004929;28;20092;-80
2023/06/12 00:18:43;;;;;;;5.65;2.97;;;11.60;58.90;;;;;;5007583;28;20100;-81
2023/06/12 00:21:11;;;;;;;4.15;3.20;;;11.60;59.00;;;;;;5011518;28;20027;-80
2023/06/12 00:23:39;;;;;;;6.63;3.03;;;11.50;59.10;;;;;;5013925;28;20026;-80
2023/06/12 00:26:05;;;;;;;;;;;11.50;59.40;;;;;;5015649;28;20360;-79
2023/06/12 00:28:31;;;;;;;5.57;2.72;;;11.40;58.90;;;;;;5014907;28;19910;-80
2023/06/12 00:30:57;;;;;;;3.58;2.47;;;11.40;59.50;;;;;;4997197;28;20034;-80
2023/06/12 00:33:23;;;;;;;3.88;2.60;;;11.30;59.90;;;;;;5015193;28;20037;-82
2023/06/12 00:35:50;;;;;;;4.25;2.35;;;11.30;60.00;;;;;;5012624;28;20026;-82
2023/06/12 00:38:15;;;;;;;6.78;2.60;;;11.30;60.20;;;;;;5007843;28;20034;-80
2023/06/12 00:40:41;;;;;;;6.43;2.50;;;11.30;60.30;;;;;;5014127;28;20373;-81
2023/06/12 00:43:09;;;;;;;6.93;2.75;;;11.30;60.50;;;;;;5014652;28;20121;-80
2023/06/12 00:45:35;;;;;;;6.93;3.17;;;11.20;60.50;;;;;;4996206;28;20482;-79
2023/06/12 00:48:03;;;;;;;5.23;2.67;;;11.20;60.60;;;;;;5014324;28;20044;-79
2023/06/12 00:50:29;;;;;;;4.43;2.45;;;11.20;60.80;;;;;;5013992;28;20061;-78
2023/06/12 00:52:57;;;;;;;4.28;2.70;;;11.20;60.80;;;;;;5016334;28;20038;-79
2023/06/12 00:55:23;;;;;;;5.32;2.72;;;11.20;60.90;;;;;;5018873;28;20101;-79
2023/06/12 00:57:49;;;;;;;3.63;2.58;;;11.20;61.10;;;;;;5014036;28;20017;-78
2023/06/12 01:00:17;;;;;;;6.75;2.63;;;11.20;61.10;;;;;;5014569;28;20025;-79
2023/06/12 01:02:54;;;;;;;6.22;3.10;;;11.20;61.10;;;;;;5013910;28;20041;-78
2023/06/12 01:05:32;;;;;;;5.35;3.03;;;11.10;61.30;;;;;;5012892;28;20025;-79
2023/06/12 01:08:17;;;;;;;6.70;2.83;;;11.10;61.50;;;;;;5013401;28;20360;-79
2023/06/12 01:10:45;;;;;;;4.15;2.55;;;11.10;61.50;;;;;;5007301;28;20483;-79
2023/06/12 01:13:13;;;;;;;4.47;2.45;;;11.10;61.60;;;;;;5001780;28;20056;-77
2023/06/12 01:15:39;;;;;;;4.05;2.13;;;11.10;61.60;;;;;;5000842;28;20018;-80
2023/06/12 01:18:06;;;;;;;4.95;3.20;;;11.10;61.70;;;;;;5017404;28;20025;-80
2023/06/12 01:20:33;;;;;;;4.72;2.17;;;11.10;61.80;;;;;;4990417;28;20026;-80
2023/06/12 01:23:11;;;;;;;15.15;3.03;;;11.10;61.90;;;;;;5021540;28;20036;-79
2023/06/12 01:26:18;;;;;;;4.25;2.50;;;11.10;61.90;;;;;;5017758;28;20030;-79
2023/06/12 01:28:59;;;;;;;5.22;2.50;;;11.10;61.90;;;;;;5027804;28;20057;-79
2023/06/12 01:31:31;;;;;;;7.07;2.35;;;11.10;62.00;;;;;;5022117;28;20068;-80
2023/06/12 01:34:16;;;;;;;3.97;2.50;;;11.10;62.00;;;;;;4998674;28;20044;-79
2023/06/12 01:36:53;;;;;;;4.07;2.25;;;11.20;62.20;;;;;;5011783;28;20018;-80
2023/06/12 01:39:22;;;;;;;4.95;2.67;;;11.20;62.10;;;;;;5013297;28;20022;-81
2023/06/12 01:41:50;;;;;;;5.47;2.63;;;11.20;62.00;;;;;;4995824;28;20026;-78
2023/06/12 01:44:20;;;;;;;4.28;2.40;;;11.20;62.00;;;;;;5011958;28;20033;-80
2023/06/12 01:46:46;;;;;;;5.20;2.53;;;11.30;62.00;;;;;;5013159;28;20022;-78
2023/06/12 01:49:11;;;;;;;6.72;3.00;;;11.30;62.60;;;;;;5013293;28;20018;-78
2023/06/12 01:51:37;;;;;;;4.60;2.30;;;11.40;61.80;;;;;;5013676;28;20423;-79
2023/06/12 01:54:03;;;;;;;8.27;2.95;;;11.30;61.70;;;;;;5012333;28;20072;-80
2023/06/12 01:56:30;;;;;;;5.03;2.83;;;11.40;61.80;;;;;;5011828;28;20471;-79
2023/06/12 01:58:55;;;;;;;4.43;2.30;;;11.50;61.70;;;;;;5013583;28;20133;-79
2023/06/12 02:01:23;;;;;;;4.32;2.67;;;11.50;61.60;;;;;;5012019;28;20026;-79
2023/06/12 02:03:49;;;;;;;5.78;3.15;;;11.50;61.60;;;;;;5012901;28;20026;-78
2023/06/12 02:06:16;;;;;;;3.80;2.58;;;11.60;61.50;;;;;;5012654;28;20541;-79
2023/06/12 02:08:43;;;;;;;3.53;2.67;;;11.50;61.50;;;;;;5012851;28;20126;-81
2023/06/12 02:11:09;;;;;;;6.82;2.55;;;11.50;61.50;;;;;;5009889;28;20025;-78
2023/06/12 02:13:35;;;;;;;4.68;2.75;;;11.60;61.60;;;;;;5012707;28;20056;-78
2023/06/12 02:16:07;;;;;;;5.13;2.97;;;11.60;61.60;;;;;;4994793;28;20053;-78
2023/06/12 02:18:33;;;;;;;5.85;2.38;;;11.60;61.60;;;;;;5012649;28;20018;-77
2023/06/12 02:20:59;;;;;;;6.20;2.80;;;11.60;61.50;;;;;;5012607;28;20040;-79
2023/06/12 02:23:25;;;;;;;6.18;2.72;;;11.60;61.60;;;;;;5012479;28;20025;-79
2023/06/12 02:25:51;;;;;;;5.28;2.90;;;11.70;61.60;;;;;;5011264;28;20025;-79
2023/06/12 02:28:17;;;;;;;5.78;2.78;;;11.70;61.30;;;;;;5012536;28;20423;-78
2023/06/12 02:30:43;;;;;;;6.07;2.83;;;11.70;61.40;;;;;;5012496;28;20041;-79
2023/06/12 02:33:12;;;;;;;5.13;2.55;;;11.70;61.40;;;;;;5012531;28;20080;-79
2023/06/12 02:35:39;;;;;;;3.53;2.50;;;11.80;61.60;;;;;;5013688;28;20057;-80
2023/06/12 02:38:05;;;;;;;4.78;2.80;;;11.80;61.40;;;;;;5014095;28;20376;-79
2023/06/12 02:40:31;;;;;;;5.50;2.35;;;11.80;61.30;;;;;;5009395;28;20057;-78
2023/06/12 02:42:56;;;;;;;3.92;2.67;;;11.90;61.40;;;;;;5016276;28;20032;-79
2023/06/12 02:45:23;;;;;;;4.65;2.80;;;11.90;61.00;;;;;;5013313;28;20018;-79
2023/06/12 02:47:49;;;;;;;6.18;2.70;;;11.90;61.00;;;;;;4996962;28;20042;-79
2023/06/12 02:50:16;;;;;;;4.70;3.05;;;12.00;61.00;;;;;;5012337;28;20068;-78
2023/06/12 02:52:41;;;;;;;5.10;2.45;;;12.00;60.90;;;;;;5012054;28;20013;-79
2023/06/12 02:55:07;;;;;;;5.65;2.90;;;12.00;60.90;;;;;;5013206;28;20033;-79
2023/06/12 02:57:34;;;;;;;3.38;2.30;;;12.10;60.90;;;;;;5013282;28;20023;-80
2023/06/12 03:00:01;;;;;;;3.33;2.50;;;12.20;60.70;;;;;;5012482;28;20064;-78
2023/06/12 03:02:27;;;;;;;5.45;2.63;;;12.30;60.40;;;;;;5012240;28;20251;-78
2023/06/12 03:04:54;;;;;;;4.63;3.08;;;12.40;60.20;;;;;;5011926;28;20498;-78
2023/06/12 03:07:20;;;;;;;5.75;3.60;;;12.50;60.10;;;;;;5011866;28;20030;-80
2023/06/12 03:09:46;;;;;;;5.70;2.50;;;12.70;59.90;;;;;;5011505;28;20022;-79
2023/06/12 03:12:12;;;;;;;3.58;2.88;;;13.00;59.40;;;;;;5012208;28;20426;-79
2023/06/12 03:14:38;;;;;;;3.53;2.85;;;13.20;59.00;;;;;;5016237;28;20030;-79
2023/06/12 03:17:05;;;;;;;4.63;2.70;;;13.30;58.50;;;;;;5016340;28;20477;-79
2023/06/12 03:19:31;;;;;;;5.30;2.70;;;13.40;58.20;;;;;;5010220;28;20030;-79
2023/06/12 03:21:58;;;;;;;5.15;2.60;;;13.40;57.90;;;;;;5018756;28;20026;-79
2023/06/12 03:24:29;;;;;;;6.38;2.55;;;13.30;57.80;;;;;;5021670;28;20368;-78
2023/06/12 03:26:57;;;;;;;5.40;3.03;;;13.30;58.00;;;;;;5017226;28;20010;-79
2023/06/12 03:29:23;;;;;;;4.30;2.75;;;13.30;57.90;;;;;;5017666;28;20022;-78
2023/06/12 03:31:48;;;;;;;6.43;2.75;;;13.30;58.00;;;;;;5017597;28;20494;-78
2023/06/12 03:34:16;;;;;;;6.60;3.33;;;13.40;58.00;;;;;;5015818;28;20072;-78
2023/06/12 03:36:43;;;;;;;4.57;2.72;;;13.50;57.40;;;;;;5015331;28;20014;-79
2023/06/12 03:39:09;;;;;;;3.83;2.55;;;13.40;57.60;;;;;;5015641;28;20025;-78
2023/06/12 03:41:35;;;;;;;6.80;2.58;;;13.50;57.50;;;;;;5015248;28;20021;-78
2023/06/12 03:44:01;;;;;;;4.25;2.22;;;13.60;57.20;;;;;;5015469;28;20088;-78
2023/06/12 03:46:30;;;;;;;2.80;2.50;;;13.70;57.10;;;;;;5015347;28;20538;-79
2023/06/12 03:48:57;;;;;;;6.10;3.28;;;13.80;56.80;;;;;;5011333;28;20097;-80
2023/06/12 03:51:23;;;;;;;4.43;2.10;;;13.80;56.70;;;;;;4997753;28;20113;-81
2023/06/12 03:53:49;;;;;;;6.25;2.45;;;13.90;56.80;;;;;;5014941;28;20499;-78
2023/06/12 03:56:15;;;;;;;4.68;2.63;;;13.90;56.40;;;;;;5015230;28;20022;-79
2023/06/12 03:58:40;;;;;;;4.63;2.35;;;14.00;56.20;;;;;;5014926;28;20391;-79
2023/06/12 04:01:06;;;;;;;4.72;2.25;;;14.10;56.00;;;;;;5015130;28;20018;-78
2023/06/12 04:03:34;;;;;;;5.63;2.90;;;14.20;55.90;;;;;;5015215;28;20030;-79
2023/06/12 04:06:00;;;;;;;3.60;2.30;;;14.30;55.90;;;;;;5011809;28;20021;-79
2023/06/12 04:08:25;;;;;;;3.58;2.60;;;14.40;54.80;;;;;;5015213;28;20092;-80
2023/06/12 04:10:52;;;;;;;4.55;2.20;;;14.30;54.50;;;;;;5017857;28;20479;-80
2023/06/12 04:13:18;;;;;;;3.28;2.13;;;14.20;54.50;;;;;;5023056;28;20037;-80
2023/06/12 04:15:44;;;;;;;3.58;1.88;;;14.30;54.30;;;;;;5014716;28;20105;-78
2023/06/12 04:18:10;;;;;;;5.28;2.63;;;14.20;54.10;;;;;;5014958;28;20018;-80
2023/06/12 04:20:38;;;;;;;4.43;2.22;;;14.20;54.10;;;;;;5015083;28;20041;-80
2023/06/12 04:23:04;;;;;;;4.57;2.08;;;14.30;54.70;;;;;;5015924;28;20018;-78
2023/06/12 04:25:31;;;;;;;4.47;1.95;;;14.50;54.50;;;;;;5014276;28;20132;-80
2023/06/12 04:27:58;;;;;;;2.72;1.98;;;14.60;53.60;;;;;;4997206;28;20053;-80
2023/06/12 04:30:25;;;;;;;5.45;2.05;;;14.60;54.00;;;;;;5014425;28;20112;-79
2023/06/12 04:32:53;;;;;;;2.50;2.20;;;14.70;53.70;;;;;;4997056;28;20080;-79
2023/06/12 04:35:19;;;;;;;3.55;1.73;;;14.80;52.70;;;;;;5011395;28;20070;-78
2023/06/12 04:37:48;;;;;;;2.53;1.75;;;14.80;52.90;;;;;;5016014;28;20022;-79
2023/06/12 04:40:14;;;;;;;3.95;2.00;;;14.90;53.00;;;;;;5014778;28;20022;-79
2023/06/12 04:42:43;;;;;;;5.68;1.70;;;14.90;53.30;;;;;;5005609;28;20018;-80
2023/06/12 04:45:12;;;;;;;4.47;2.05;;;15.00;52.90;;;;;;4996800;28;20018;-79
2023/06/12 04:47:41;;;;;;;8.88;2.60;;;15.20;52.70;;;;;;5013496;28;20117;-79
2023/06/12 04:50:10;;;;;;;3.67;2.17;;;15.30;52.40;;;;;;4997119;28;20426;-78
2023/06/12 04:52:39;;;;;;;2.72;1.73;;;15.40;52.10;;;;;;5014058;28;20025;-79
2023/06/12 04:55:08;;;;;;;4.95;2.20;;;15.50;51.50;;;;;;5014046;28;20120;-80
2023/06/12 04:57:36;;;;;;;3.60;1.73;;;15.40;51.40;;;;;;4996792;28;20467;-80
2023/06/12 05:00:05;;;;;;;3.70;1.85;;;15.30;51.90;;;;;;5013225;28;20048;-79
2023/06/12 05:02:33;;;;;;;3.60;2.03;;;15.30;51.50;;;;;;5013737;28;20124;-81
2023/06/12 05:05:00;;;;;;;3.20;1.63;;;15.30;52.10;;;;;;5014968;28;20022;-80
2023/06/12 05:07:27;;;;;;;4.25;1.80;;;15.30;52.50;;;;;;5011798;28;20041;-80
2023/06/12 05:09:53;;;;;;;3.40;1.92;;;15.50;52.60;;;;;;5010945;28;20021;-80
2023/06/12 05:12:19;;;;;;;6.65;2.00;;;16.00;51.40;;;;;;5014938;28;20044;-81
2023/06/12 05:14:45;;;;;;;3.05;1.92;;;16.70;50.20;;;;;;5017584;28;20034;-80
2023/06/12 05:17:11;;;;;;;10.80;2.05;;;17.50;48.80;;;;;;5017011;28;20017;-77
2023/06/12 05:19:40;;;;;;;8.50;2.30;;;18.50;46.80;;;;;;5009080;28;20034;-80
2023/06/12 05:22:06;;;;;;;5.07;2.22;;;19.60;45.20;;;;;;5001331;28;20026;-81
2023/06/12 05:24:32;;;;;;;5.38;1.65;;;20.80;43.50;;;;;;5015284;28;20036;-78
2023/06/12 05:26:59;;;;;;;3.17;1.85;;;21.40;41.70;;;;;;5013619;28;20021;-80
2023/06/12 05:29:26;;;;;;;;;;;21.90;40.50;;;;;;5014109;28;20546;-79
2023/06/12 05:31:52;;;;;;;2.92;1.50;;;22.10;40.90;;;;;;5014375;28;19955;-81
2023/06/12 05:34:18;;;;;;;4.32;1.60;;;22.40;39.10;;;;;;5017464;28;20057;-79
2023/06/12 05:36:44;;;;;;;3.13;2.15;;;;;;;;;;5017275;28;20033;-79
2023/06/12 05:39:10;;;;;;;4.75;1.90;;;22.60;39.00;;;;;;5012605;28;20101;-79
2023/06/12 05:41:36;;;;;;;3.80;1.38;;;23.60;37.30;;;;;;5017370;28;20435;-79
2023/06/12 05:44:03;;;;;;;5.18;1.48;;;23.60;36.40;;;;;;5017775;28;20082;-79
2023/06/12 05:46:29;;;;;;;4.85;1.67;;;23.10;36.60;;;;;;5014439;28;20407;-81
2023/06/12 05:48:57;;;;;;;2.55;1.25;;;22.90;36.50;;;;;;5013169;28;20025;-80
2023/06/12 05:51:24;;;;;;;1.45;1.30;;;23.20;36.30;;;;;;4987880;28;20109;-79
2023/06/12 05:53:50;;;;;;;2.35;1.50;;;23.20;36.80;;;;;;4990857;28;20507;-80
2023/06/12 05:56:16;;;;;;;4.07;1.48;;;23.30;36.10;;;;;;5013461;28;20022;-80
2023/06/12 05:58:44;;;;;;;2.90;1.80;;;23.60;36.00;;;;;;5015817;28;20076;-80
2023/06/12 06:01:11;;;;;;;7.93;2.30;;;24.00;35.80;;;;;;5011586;28;20018;-79
2023/06/12 06:03:42;;;;;;;3.90;1.52;;;24.60;35.20;;;;;;4993902;28;20104;-79
2023/06/12 06:06:17;;;;;;;2.50;1.55;;;25.30;34.50;;;;;;5012033;28;20020;-81
2023/06/12 06:08:43;;;;;;;3.40;1.23;;;25.80;34.00;;;;;;5010322;28;20084;-80
2023/06/12 06:11:09;;;;;;;5.13;1.80;;;25.50;34.00;;;;;;5012289;28;20021;-80
2023/06/12 06:13:35;;;;;;;3.90;1.40;;;25.90;34.00;;;;;;5012871;28;20033;-79
2023/06/12 06:16:01;;;;;;;4.80;1.50;;;26.90;32.80;;;;;;5013271;28;20145;-78
2023/06/12 06:18:28;;;;;;;2.95;1.38;;;26.80;32.50;;;;;;4996186;28;20037;-80
2023/06/12 06:20:54;;;;;;;1.73;1.38;;;27.20;32.20;;;;;;5014566;28;20029;-78
2023/06/12 06:23:21;;;;;;;4.95;1.50;;;28.00;31.70;;;;;;5013191;28;20026;-79
2023/06/12 06:25:47;;;;;;;3.58;1.85;;;;;;;;;;5012466;28;20028;-80
2023/06/12 06:28:14;;;;;;;4.00;0.90;;;28.40;31.50;;;;;;5012669;28;20072;-79
2023/06/12 06:30:40;;;;;;;3.33;1.25;;;29.10;30.40;;;;;;5017444;28;20124;-80
2023/06/12 06:33:06;;;;;;;4.72;2.20;;;28.30;30.40;;;;;;4996248;28;20058;-79
2023/06/12 06:35:32;;;;;;;11.48;2.83;;;28.20;30.70;;;;;;5015445;28;20033;-81
2023/06/12 06:37:58;;;;;;;4.82;1.20;;;28.10;30.20;;;;;;5022091;28;20061;-81
2023/06/12 06:40:25;;;;;;;3.00;1.27;;;27.30;30.70;;;;;;4993148;28;20041;-79
2023/06/12 06:42:52;;;;;;;2.20;1.42;;;26.90;30.90;;;;;;4998364;28;20026;-80
2023/06/12 06:45:19;;;;;;;2.20;1.33;;;26.90;31.20;;;;;;4994815;28;20046;-81
2023/06/12 06:47:45;;;;;;;4.30;1.52;;;27.50;30.90;;;;;;4994412;28;20017;-79
2023/06/12 06:50:11;;;;;;;6.05;1.98;;;28.20;30.60;;;;;;5004522;28;20033;-79
2023/06/12 06:52:37;;;;;;;3.85;1.65;;;28.60;30.10;;;;;;5011334;28;20026;-80
2023/06/12 06:55:04;;;;;;;4.00;1.60;;;28.30;29.70;;;;;;5012169;28;20038;-80
2023/06/12 06:57:30;;;;;;;2.22;1.27;;;28.00;30.00;;;;;;5012083;28;20030;-82
2023/06/12 06:59:57;;;;;;;2.85;1.58;;;27.90;30.00;;;;;;5012593;28;20040;-80
2023/06/12 07:02:23;;;;;;;1.95;1.30;;;27.50;30.00;;;;;;5012388;28;20057;-80
2023/06/12 07:04:50;;;;;;;3.88;1.48;;;27.30;30.20;;;;;;4995136;28;20552;-81
2023/06/12 07:07:16;;;;;;;4.65;1.75;;;27.80;30.60;;;;;;4995447;28;20049;-81
2023/06/12 07:09:42;;;;;;;4.30;1.23;;;28.80;30.00;;;;;;5023138;28;20401;-82
2023/06/12 07:12:08;;;;;;;7.18;1.55;;;29.10;29.70;;;;;;5012936;28;20026;-83
2023/06/12 07:14:34;;;;;;;2.83;1.35;;;29.00;30.00;;;;;;5013082;28;20072;-80
2023/06/12 07:17:00;;;;;;;4.13;1.30;;;28.70;29.60;;;;;;5013382;28;20030;-83
2023/06/12 07:19:25;;;;;;;2.15;1.40;;;28.40;29.80;;;;;;5012107;28;20625;-79
2023/06/12 07:21:51;;;;;;;4.68;1.63;;;27.90;30.10;;;;;;5010628;28;20812;-81
2023/06/12 07:24:17;;;;;;;9.00;2.35;;;27.40;30.60;;;;;;5012327;28;20097;-81
2023/06/12 07:26:44;;;;;;;5.20;1.70;;;27.90;30.50;;;;;;5011915;28;20080;-81
2023/06/12 07:29:10;;;;;;;3.47;1.65;;;;;;;;;;5011096;28;20026;-81
2023/06/12 07:31:37;;;;;;;7.18;1.60;;;;;;;;;;5013075;28;20033;-81
2023/06/12 07:34:03;;;;;;;3.00;1.50;;;28.50;29.80;;;;;;5013024;28;20034;-83
2023/06/12 07:36:31;;;;;;;2.10;1.30;;;30.50;28.20;;;;;;5016956;28;20045;-81
2023/06/12 07:38:57;;;;;;;5.05;1.60;;;29.80;28.10;;;;;;5018789;28;20146;-80
2023/06/12 07:41:23;;;;;;;5.25;1.52;;;28.70;28.80;;;;;;5017715;28;20025;-83
2023/06/12 07:43:49;;;;;;;3.90;2.38;;;28.70;29.00;;;;;;5011319;28;20495;-80
2023/06/12 07:46:16;;;;;;;5.93;1.70;;;29.10;29.10;;;;;;5012187;28;20017;-81
2023/06/12 07:48:42;;;;;;;6.68;1.65;;;30.20;28.50;;;;;;4993970;28;20053;-81
2023/06/12 07:51:07;;;;;;;4.60;1.58;;;30.10;28.40;;;;;;5012010;28;20357;-79
2023/06/12 07:53:33;;;;;;;4.57;1.65;;;30.30;28.40;;;;;;4995518;28;20038;-79
2023/06/12 07:56:00;;;;;;;9.77;3.13;;;30.80;28.60;;;;;;5011406;28;20021;-84
2023/06/12 07:58:25;;;;;;;4.53;1.70;;;31.00;27.80;;;;;;5010584;28;20026;-84
2023/06/12 08:00:55;;;;;;;3.38;1.63;;;29.70;28.40;;;;;;5017348;28;20364;-82
2023/06/12 08:03:26;;;;;;;4.32;1.80;;;29.40;29.00;;;;;;5010017;28;20044;-82
2023/06/12 08:05:52;;;;;;;4.18;1.75;;;28.90;29.10;;;;;;5016673;28;20022;-83
2023/06/12 08:08:18;;;;;;;4.82;1.58;;;30.00;29.30;;;;;;5012559;28;20118;-84
2023/06/12 08:10:44;;;;;;;4.47;1.77;;;31.60;28.50;;;;;;5016719;28;20097;-81
2023/06/12 08:13:10;;;;;;;3.53;1.40;;;33.20;27.60;;;;;;5014917;28;20124;-85
2023/06/12 08:15:36;;;;;;;3.00;1.50;;;33.10;27.20;;;;;;5014382;28;20030;-82
2023/06/12 08:18:02;;;;;;;2.83;1.60;;;31.80;27.70;;;;;;4997499;28;20361;-81
2023/06/12 08:20:30;;;;;;;4.10;1.63;;;31.50;27.50;;;;;;5015693;28;20034;-82
2023/06/12 08:22:56;;;;;;;4.78;1.73;;;31.50;27.70;;;;;;4990260;28;20040;-79
2023/06/12 08:25:23;;;;;;;1.75;1.45;;;32.00;27.80;;;;;;5003740;28;20041;-82
2023/06/12 08:27:48;;;;;;;2.55;1.67;;;32.80;27.20;;;;;;5011644;28;20117;-81
2023/06/12 08:30:15;;;;;;;3.50;1.67;;;33.40;27.10;;;;;;5014372;28;20054;-80
2023/06/12 08:32:40;;;;;;;5.13;2.05;;;32.90;26.80;;;;;;5015043;28;20021;-78
2023/06/12 08:35:07;;;;;;;3.13;1.47;;;31.60;27.50;;;;;;5005731;28;20560;-80
2023/06/12 08:37:33;;;;;;;3.63;1.75;;;31.20;28.00;;;;;;5012513;28;20472;-79
2023/06/12 08:40:00;;;;;;;4.53;2.33;;;32.10;27.80;;;;;;5014442;28;20022;-80
2023/06/12 08:42:26;;;;;;;4.32;1.73;;;31.80;27.40;;;;;;5014992;28;20026;-77
2023/06/12 08:45:00;;;;;;;5.93;2.20;;;32.20;27.70;;;;;;5016475;28;20097;-79
2023/06/12 08:47:27;;;;;;;3.92;1.80;;;32.90;27.30;;;;;;5006585;28;20399;-81
2023/06/12 08:49:53;;;;;;;4.78;2.28;;;33.20;27.10;;;;;;5015891;28;20041;-80
2023/06/12 08:52:20;;;;;;;5.78;1.73;;;32.70;27.20;;;;;;5012631;28;20040;-81
2023/06/12 08:54:47;;;;;;;3.78;1.30;;;31.70;27.30;;;;;;5015460;28;20395;-82
2023/06/12 08:57:13;;;;;;;4.18;1.92;;;31.30;28.10;;;;;;5025175;28;20054;-85
2023/06/12 08:59:39;;;;;;;3.13;1.80;;;32.10;27.40;;;;;;5020813;28;20026;-84
2023/06/12 09:02:08;;;;;;;1.77;1.37;;;32.80;27.50;;;;;;4999142;28;20017;-84
2023/06/12 09:04:37;;;;;;;5.28;1.80;;;33.00;27.10;;;;;;5020209;28;20164;-83
2023/06/12 09:07:03;;;;;;;3.05;1.80;;;32.30;27.40;;;;;;5014603;28;20432;-83
2023/06/12 09:09:37;;;;;;;3.90;1.67;;;32.70;27.30;;;;;;4998156;28;20018;-85
2023/06/12 09:12:03;;;;;;;2.67;1.65;;;32.30;26.90;;;;;;5014632;28;20022;-84
2023/06/12 09:14:34;;;;;;;4.13;2.15;;;31.80;27.50;;;;;;5000145;28;20399;-84
2023/06/12 09:17:03;;;;;;;4.72;1.73;;;32.60;27.30;;;;;;5019017;28;20383;-84
2023/06/12 09:19:43;;;;;;;3.25;2.15;;;32.10;27.10;;;;;;5014952;28;20022;-80
2023/06/12 09:22:11;;;;;;;4.78;1.73;;;31.50;27.40;;;;;;4997627;28;20049;-87
2023/06/12 09:24:37;;;;;;;2.75;1.52;;;31.10;27.60;;;;;;5018470;28;20030;-80
2023/06/12 09:27:04;;;;;;;1.88;1.50;;;31.20;27.50;;;;;;4999078;28;20022;-82
2023/06/12 09:29:34;;;;;;;4.05;1.83;;;31.40;27.60;;;;;;5023372;28;20030;-83
2023/06/12 09:32:05;;;;;;;4.63;1.63;;;32.40;27.50;;;;;;5019479;28;20083;-85
2023/06/12 09:34:34;;;;;;;3.17;1.80;;;33.30;26.90;;;;;;5015836;28;20045;-86
2023/06/12 09:37:03;;;;;;;2.72;1.90;;;33.50;26.60;;;;;;5016716;28;20091;-83
2023/06/12 09:39:30;;;;;;;3.53;1.60;;;32.10;26.80;;;;;;5028452;28;20026;-85
2023/06/12 09:41:57;;;;;;;4.72;1.98;;;31.50;27.40;;;;;;5004155;28;20015;-84
2023/06/12 09:44:28;;;;;;;3.38;2.15;;;31.60;27.40;;;;;;5018672;28;20492;-82
2023/06/12 09:46:59;;;;;;;4.97;2.47;;;32.00;27.70;;;;;;5016356;28;20586;-83
2023/06/12 09:49:25;;;;;;;2.33;1.52;;;31.80;27.40;;;;;;4996943;28;20041;-85
2023/06/12 09:51:52;;;;;;;4.63;1.40;;;32.30;27.50;;;;;;4996956;28;20121;-84
2023/06/12 09:54:21;;;;;;;2.10;1.70;;;32.40;27.40;;;;;;4998190;28;20081;-85
2023/06/12 09:56:48;;;;;;;2.95;1.60;;;32.60;27.30;;;;;;5014411;28;20487;-80
2023/06/12 09:59:19;;;;;;;4.93;2.58;;;31.70;27.00;;;;;;5014275;28;20444;-80
2023/06/12 10:01:55;;;;;;;5.45;2.33;;;30.40;27.70;;;;;;5012451;28;20057;-81
2023/06/12 10:04:44;;;;;;;4.53;2.00;;;29.50;28.40;;;;;;5012826;28;20376;-78
2023/06/12 10:07:23;;;;;;;3.67;1.73;;;29.40;28.80;;;;;;5003325;28;20041;-80
2023/06/12 10:09:50;;;;;;;4.57;1.92;;;30.00;28.40;;;;;;5007827;28;20379;-79
2023/06/12 10:12:16;;;;;;;;;;;30.40;28.10;;;;;;5013021;28;20041;-77
2023/06/12 10:14:43;;;;;;;10.73;2.60;;;31.00;28.50;;;;;;4993571;28;20373;-77
2023/06/12 10:17:10;;;;;;;9.20;2.13;;;31.40;27.80;;;;;;5002988;28;20480;-76
2023/06/12 10:19:40;;;;;;;2.67;1.77;;;30.60;27.40;;;;;;5011158;28;20129;-76
2023/06/12 10:22:07;;;;;;;9.98;2.10;;;29.50;28.40;;;;;;4983627;28;20030;-78
2023/06/12 10:24:34;;;;;;;5.40;2.15;;;29.70;28.50;;;;;;5012536;28;20037;-77
2023/06/12 10:27:01;;;;;;;2.78;1.63;;;30.50;28.50;;;;;;5014074;28;20022;-77
2023/06/12 10:29:28;;;;;;;4.22;1.90;;;30.00;27.40;;;;;;5012378;28;20038;-76
2023/06/12 10:31:54;;;;;;;2.65;1.83;;;27.90;28.20;;;;;;5006897;28;20022;-77
2023/06/12 10:34:20;;;;;;;4.55;1.77;;;26.10;29.40;;;;;;5012561;28;20121;-78
2023/06/12 10:36:47;;;;;;;4.13;2.08;;;24.70;30.70;;;;;;5012242;28;20052;-76
2023/06/12 10:39:15;;;;;;;4.90;2.25;;;23.60;32.10;;;;;;5012289;28;20030;-77
2023/06/12 10:41:52;;;;;;;4.82;2.30;;;22.60;33.30;;;;;;5011924;28;20021;-77
2023/06/12 10:44:34;;;;;;;3.97;2.50;;;21.80;34.80;;;;;;5010157;28;20513;-78
2023/06/12 10:47:02;;;;;;;3.72;2.33;;;21.30;35.60;;;;;;5012013;28;20022;-83
2023/06/12 10:49:28;;;;;;;6.78;2.30;;;20.90;36.30;;;;;;5012219;28;20037;-77
2023/06/12 10:51:53;;;;;;;3.65;2.03;;;20.90;37.30;;;;;;5012177;28;20096;-79
2023/06/12 10:54:26;;;;;;;5.05;1.90;;;20.70;37.60;;;;;;5021689;28;20049;-77
2023/06/12 10:56:57;;;;;;;5.68;2.67;;;20.50;37.80;;;;;;5004465;28;20018;-77
2023/06/12 10:59:55;;;;;;;3.92;2.13;;;20.40;38.40;;;;;;5012422;28;20034;-80
2023/06/12 11:02:21;;;;;;;6.55;2.10;;;20.40;38.20;;;;;;5011709;28;20395;-79
2023/06/12 11:04:47;;;;;;;3.28;2.20;;;20.30;38.10;;;;;;5010977;28;20029;-80
2023/06/12 11:07:15;;;;;;;5.03;1.92;;;20.20;38.80;;;;;;5012160;28;20355;-79
2023/06/12 11:09:41;;;;;;;7.78;2.92;;;20.20;38.60;;;;;;5012351;28;20022;-78
2023/06/12 11:12:10;;;;;;;3.50;2.22;;;20.10;38.80;;;;;;5012041;28;20403;-77
2023/06/12 11:14:36;;;;;;;2.65;2.00;;;;;;;;;;5011827;28;20033;-76
2023/06/12 11:17:02;;;;;;;4.13;1.80;;;19.90;38.70;;;;;;4994740;28;20393;-77
2023/06/12 11:19:28;;;;;;;5.18;1.95;;;;;;;;;;5013614;28;20024;-77
2023/06/12 11:21:55;;;;;;;4.72;2.13;;;;;;;;;;5010886;28;20026;-77
2023/06/12 11:24:22;;;;;;;5.68;2.20;;;20.00;39.30;;;;;;5011984;28;20088;-78
2023/06/12 11:26:51;;;;;;;3.85;2.22;;;19.90;39.60;;;;;;5011252;28;20022;-75
2023/06/12 11:29:19;;;;;;;5.90;2.25;;;19.90;39.40;;;;;;5011516;28;20034;-77
2023/06/12 11:32:04;;;;;;;6.93;2.90;;;19.90;39.20;;;;;;5010857;28;20026;-79
2023/06/12 11:34:36;;;;;;;5.28;2.60;;;;;;;;;;5010156;28;20096;-79
2023/06/12 11:37:19;;;;;;;3.40;1.92;;;;;;;;;;5011644;28;20064;-78
2023/06/12 11:39:45;;;;;;;3.35;1.92;;;;;;;;;;5015393;28;20037;-77
2023/06/12 11:42:11;;;;;;;5.63;2.65;;;;;;;;;;5015892;28;20037;-77
2023/06/12 11:44:40;;;;;;;6.50;3.15;;;;;;;;;;5017157;28;20029;-77
2023/06/12 11:47:07;;;;;;;5.90;2.70;;;;;;;;;;5016607;28;20496;-76
2023/06/12 11:49:37;;;;;;;6.20;2.35;;;;;;;;;;5015136;28;20054;-78
2023/06/12 11:52:03;;;;;;;5.00;2.03;;;;;;;;;;5014200;28;20100;-77
2023/06/12 11:54:30;;;;;;;4.07;2.20;;;;;;;;;;5001348;28;20054;-77
2023/06/12 11:56:56;;;;;;;3.35;2.22;;;;;;;;;;5015230;28;20583;-78
2023/06/12 11:59:25;;;;;;;5.28;2.40;;;;;;;;;;4998013;28;20124;-78
2023/06/12 12:01:52;;;;;;;7.00;3.22;;;;;;;;;;5015272;28;20068;-78
2023/06/12 12:04:18;;;;;;;5.85;2.75;;;;;;;;;;5014957;28;20030;-78
2023/06/12 12:06:48;;;;;;;4.53;2.70;;;;;;;;;;5015003;28;20033;-78
2023/06/12 12:09:15;;;;;;;5.47;2.60;;;;;;;;;;4996353;28;20530;-79
2023/06/12 12:11:41;;;;;;;6.70;3.25;;;;;;;;;;4997011;28;20032;-78
2023/06/12 12:14:08;;;;;;;3.10;2.28;;;;;;;;;;4997180;28;20057;-77
2023/06/12 12:16:42;;;;;;;7.05;3.00;;;;;;;;;;5015253;28;20052;-76
2023/06/12 12:19:15;;;;;;;3.38;2.20;;;;;;;;;;5000621;28;20471;-78
2023/06/12 12:21:45;;;;;;;3.78;2.47;;;;;;;;;;5017304;28;20386;-78
2023/06/12 12:24:12;;;;;;;6.38;2.85;;;;;;;;;;4996097;28;20153;-77
2023/06/12 12:26:42;;;;;;;7.43;2.30;;;;;;;;;;5014680;28;20018;-76
2023/06/12 12:29:08;;;;;;;6.35;2.47;;;;;;;;;;4997089;28;20026;-78
2023/06/12 12:31:37;;;;;;;3.53;2.28;;;;;;;;;;5014395;28;20561;-78
2023/06/12 12:34:03;;;;;;;5.30;2.15;;;;;;;;;;5014601;28;20033;-77
2023/06/12 12:36:29;;;;;;;5.75;2.53;;;;;;;;;;5014655;28;20026;-79
2023/06/12 12:38:55;;;;;;;4.80;2.33;;;;;;;;;;5015053;28;20028;-79
2023/06/12 12:41:21;;;;;;;7.70;2.25;;;;;;;;;;5014351;28;20816;-77
2023/06/12 12:43:47;;;;;;;5.38;2.35;;;;;;;;;;5014253;28;20057;-77
2023/06/12 12:46:14;;;;;;;5.07;2.80;;;;;;;;;;5015286;28;20045;-78
2023/06/12 12:48:40;;;;;;;3.95;2.53;;;;;;;;;;5014452;28;20160;-78
2023/06/12 12:51:06;;;;;;;2.38;1.85;;;;;;;;;;5015230;28;20096;-78
2023/06/12 12:53:32;;;;;;;6.38;2.17;;;;;;;;;;5018774;28;20053;-77
2023/06/12 12:55:58;;;;;;;7.95;2.55;;;;;;;;;;5023360;28;20042;-77
2023/06/12 12:58:24;;;;;;;7.43;3.00;;;;;;;;;;5017803;28;20021;-77
2023/06/12 13:00:50;;;;;;;4.50;2.72;;;;;;;;;;5013683;28;20038;-78
2023/06/12 13:03:16;;;;;;;4.93;2.28;;;;;;;;;;5014371;28;20022;-79
2023/06/12 13:05:43;;;;;;;4.60;2.22;;;;;;;;;;5014110;28;20104;-78